createdAt,value
2022-12-26T00:01:59.299Z,100859.56
2022-12-26T00:04:48.650Z,100759.81
2022-12-26T00:07:17.887Z,100868.06
2022-12-26T00:09:46.360Z,100766.56
2022-12-26T00:12:15.903Z,100888.31
2022-12-26T00:14:56.289Z,100919.22
2022-12-26T00:17:23.257Z,100958.31
2022-12-26T00:19:50.300Z,100974.44
2022-12-26T00:22:17.160Z,100871.50
2022-12-26T00:24:44.148Z,100912.75
2022-12-26T00:27:34.525Z,100798.97
2022-12-26T00:30:08.831Z,100760.56
2022-12-26T00:32:38.805Z,100893.16
2022-12-26T00:35:08.504Z,100876.91
2022-12-26T00:37:40.502Z,100788.41
2022-12-26T00:40:14.457Z,100870.41
2022-12-26T00:42:55.326Z,100916.47
2022-12-26T00:45:22.246Z,100856.75
2022-12-26T00:47:49.108Z,100958.50
2022-12-26T00:50:16.263Z,100756.50
2022-12-26T00:52:43.258Z,100859.03
2022-12-26T00:55:10.275Z,100950.19
2022-12-26T00:57:37.128Z,100858.16
2022-12-26T01:00:06.976Z,100824.00
2022-12-26T01:02:33.891Z,100785.84
2022-12-26T01:05:02.717Z,100853.47
2022-12-26T01:07:32.610Z,100789.41
2022-12-26T01:09:59.501Z,100964.47
2022-12-26T01:12:26.416Z,100776.72
2022-12-26T01:14:55.744Z,100780.81
2022-12-26T01:17:24.959Z,100752.00
2022-12-26T01:19:52.746Z,100891.94
2022-12-26T01:22:20.389Z,100786.22
2022-12-26T01:24:47.109Z,100971.50
2022-12-26T01:27:13.964Z,100927.28
2022-12-26T01:29:40.934Z,100902.31
2022-12-26T01:32:08.058Z,100994.44
2022-12-26T01:34:39.229Z,100923.78
2022-12-26T01:37:08.539Z,100952.19
2022-12-26T01:39:35.595Z,100903.66
2022-12-26T01:42:10.638Z,100980.94
2022-12-26T01:45:17.793Z,100984.16
2022-12-26T01:47:49.711Z,100997.13
2022-12-26T01:50:29.274Z,100897.63
2022-12-26T01:53:01.198Z,100902.72
2022-12-26T01:55:30.355Z,100869.16
2022-12-26T01:58:03.613Z,100890.81
2022-12-26T02:00:31.771Z,100936.44
2022-12-26T02:03:03.525Z,100898.78
2022-12-26T02:05:34.496Z,100836.00
2022-12-26T02:08:04.634Z,100786.53
2022-12-26T02:10:42.522Z,100844.56
2022-12-26T02:13:13.984Z,100851.63
2022-12-26T02:15:43.041Z,100964.19
2022-12-26T02:18:10.001Z,100776.19
2022-12-26T02:20:45.045Z,100847.56
2022-12-26T02:23:47.647Z,100970.16
2022-12-26T02:26:49.919Z,100968.88
2022-12-26T02:30:00.799Z,100963.13
2022-12-26T02:32:40.297Z,100973.44
2022-12-26T02:35:15.741Z,100926.00
2022-12-26T02:37:54.713Z,100940.47
2022-12-26T02:40:41.601Z,100956.72
2022-12-26T02:43:17.159Z,100880.25
2022-12-26T02:45:52.777Z,100939.97
2022-12-26T02:48:32.356Z,100872.72
2022-12-26T02:51:11.599Z,100858.41
2022-12-26T02:53:46.596Z,100747.06
2022-12-26T02:56:19.592Z,100883.69
2022-12-26T02:58:57.840Z,100929.84
2022-12-26T03:01:30.922Z,100840.72
2022-12-26T03:04:04.479Z,100900.09
2022-12-26T03:06:34.414Z,100911.03
2022-12-26T03:09:04.691Z,100736.41
2022-12-26T03:11:37.593Z,100910.19
2022-12-26T03:14:13.981Z,100912.91
2022-12-26T03:16:43.857Z,100813.97
2022-12-26T03:19:15.581Z,100830.28
2022-12-26T03:21:45.064Z,100906.16
2022-12-26T03:24:14.296Z,100729.38
2022-12-26T03:26:46.636Z,100724.56
2022-12-26T03:29:18.979Z,100766.25
2022-12-26T03:31:46.579Z,100807.22
2022-12-26T03:34:14.815Z,100806.94
2022-12-26T03:36:55.778Z,100810.66
2022-12-26T03:39:32.213Z,100912.66
2022-12-26T03:42:06.335Z,100903.63
2022-12-26T03:44:41.135Z,100843.78
2022-12-26T03:47:17.379Z,100809.91
2022-12-26T03:49:52.003Z,100768.94
2022-12-26T03:52:24.445Z,100872.50
2022-12-26T03:54:57.112Z,100906.66
2022-12-26T03:57:31.776Z,100855.94
2022-12-26T04:00:03.039Z,100799.25
2022-12-26T04:02:32.496Z,100915.59
2022-12-26T04:05:04.293Z,100913.72
2022-12-26T04:07:34.870Z,100909.38
2022-12-26T04:10:07.870Z,100908.84
2022-12-26T04:12:37.437Z,100882.00
2022-12-26T04:15:11.998Z,100913.13
2022-12-26T04:17:45.872Z,100880.00
2022-12-26T04:20:19.955Z,100914.97
2022-12-26T04:22:51.276Z,100926.81
2022-12-26T04:25:49.008Z,100933.03
2022-12-26T04:28:15.700Z,100870.75
2022-12-26T04:30:47.785Z,100741.09
2022-12-26T04:33:19.621Z,100751.34
2022-12-26T04:35:52.331Z,100840.81
2022-12-26T04:38:24.512Z,100861.41
2022-12-26T04:40:59.524Z,100723.25
2022-12-26T04:43:48.607Z,100736.25
2022-12-26T04:46:17.638Z,100753.06
2022-12-26T04:48:47.405Z,100842.69
2022-12-26T04:51:16.033Z,100905.00
2022-12-26T04:53:42.814Z,100858.91
2022-12-26T04:56:11.036Z,100856.13
2022-12-26T04:58:37.846Z,100838.25
2022-12-26T05:01:04.648Z,100903.09
2022-12-26T05:03:31.498Z,100752.00
2022-12-26T05:05:58.697Z,100888.91
2022-12-26T05:08:33.304Z,100758.16
2022-12-26T05:11:00.124Z,100720.50
2022-12-26T05:13:26.979Z,100803.41
2022-12-26T05:15:53.815Z,100720.56
2022-12-26T05:18:20.617Z,100741.69
2022-12-26T05:20:47.701Z,100725.94
2022-12-26T05:23:22.003Z,100850.41
2022-12-26T05:25:51.994Z,100734.88
2022-12-26T05:28:19.527Z,100792.75
2022-12-26T05:30:49.516Z,100909.22
2022-12-26T05:33:18.332Z,100745.34
2022-12-26T05:35:46.368Z,100930.78
2022-12-26T05:38:15.505Z,100794.13
2022-12-26T05:40:42.365Z,100791.69
2022-12-26T05:43:14.045Z,100839.19
2022-12-26T05:45:43.731Z,100919.59
2022-12-26T05:48:13.539Z,100900.50
2022-12-26T05:50:42.269Z,100790.31
2022-12-26T05:53:09.394Z,100772.28
2022-12-26T05:55:36.294Z,100782.22
2022-12-26T05:58:05.303Z,100768.41
2022-12-26T06:00:33.821Z,100833.88
2022-12-26T06:03:02.939Z,100755.00
2022-12-26T06:05:29.999Z,100881.06
2022-12-26T06:07:56.822Z,100740.69
2022-12-26T06:10:23.528Z,100788.72
2022-12-26T06:12:50.530Z,100683.91
2022-12-26T06:15:17.334Z,100734.84
2022-12-26T06:17:45.691Z,100864.53
2022-12-26T06:20:12.518Z,100784.13
2022-12-26T06:22:42.596Z,100861.22
2022-12-26T06:25:13.464Z,100866.16
2022-12-26T06:27:43.349Z,100896.25
2022-12-26T06:30:11.013Z,100888.16
2022-12-26T06:32:37.916Z,100700.53
2022-12-26T06:35:09.716Z,100727.78
2022-12-26T06:37:36.544Z,100806.69
2022-12-26T06:40:03.878Z,100808.38
2022-12-26T06:42:30.881Z,100895.28
2022-12-26T06:44:58.214Z,100879.63
2022-12-26T06:47:27.450Z,100862.59
2022-12-26T06:49:56.148Z,100785.78
2022-12-26T06:52:24.377Z,100872.28
2022-12-26T06:54:51.247Z,100693.66
2022-12-26T06:57:18.290Z,100684.94
2022-12-26T06:59:45.045Z,100725.63
2022-12-26T07:02:11.924Z,100763.06
2022-12-26T07:04:38.923Z,100719.13
2022-12-26T07:07:09.271Z,100787.50
2022-12-26T07:09:38.195Z,100681.78
2022-12-26T07:12:06.118Z,100712.34
2022-12-26T07:14:33.290Z,100707.16
2022-12-26T07:17:00.397Z,100750.63
2022-12-26T07:19:29.330Z,100809.91
2022-12-26T07:21:56.751Z,100861.59
2022-12-26T07:24:23.519Z,100849.47
2022-12-26T07:26:51.634Z,100846.25
2022-12-26T07:29:18.750Z,100806.31
2022-12-26T07:31:46.035Z,100808.97
2022-12-26T07:34:14.446Z,100703.31
2022-12-26T07:36:42.080Z,100739.56
2022-12-26T07:39:09.237Z,100800.25
2022-12-26T07:41:36.514Z,100805.59
2022-12-26T07:44:05.011Z,100731.44
2022-12-26T07:46:32.048Z,100687.44
2022-12-26T07:48:59.155Z,100864.97
2022-12-26T07:51:26.640Z,100751.44
2022-12-26T07:53:53.398Z,100704.88
2022-12-26T07:56:20.380Z,100735.28
2022-12-26T07:58:49.130Z,100681.66
2022-12-26T08:01:17.751Z,100760.81
2022-12-26T08:03:46.339Z,100689.09
2022-12-26T08:06:17.394Z,100736.25
2022-12-26T08:08:50.484Z,100751.25
2022-12-26T08:11:23.647Z,100638.81
2022-12-26T08:13:50.907Z,100832.81
2022-12-26T08:16:23.997Z,100650.34
2022-12-26T08:18:52.954Z,100766.34
2022-12-26T08:21:19.919Z,100671.50
2022-12-26T08:23:46.957Z,100677.69
2022-12-26T08:26:17.600Z,100763.41
2022-12-26T08:28:44.409Z,100674.41
2022-12-26T08:31:18.157Z,100761.78
2022-12-26T08:33:50.573Z,100667.69
2022-12-26T08:36:18.852Z,100738.38
2022-12-26T08:38:46.627Z,100820.09
2022-12-26T08:41:13.750Z,100849.50
2022-12-26T08:46:27.391Z,100853.81
2022-12-26T08:48:55.684Z,100742.31
2022-12-26T08:51:30.388Z,100816.28
2022-12-26T08:53:57.248Z,100814.25
2022-12-26T08:56:25.402Z,100857.56
2022-12-26T08:58:52.750Z,100761.63
2022-12-26T09:01:21.959Z,100760.19
2022-12-26T09:03:53.994Z,100890.72
2022-12-26T09:06:28.596Z,100784.50
2022-12-26T09:09:01.500Z,100783.38
2022-12-26T09:11:29.465Z,100859.72
2022-12-26T09:14:01.067Z,100718.09
2022-12-26T09:16:50.077Z,100939.25
2022-12-26T09:19:21.648Z,100756.94
2022-12-26T09:21:53.812Z,100749.25
2022-12-26T09:24:45.099Z,100887.38
2022-12-26T09:27:12.037Z,100834.16
2022-12-26T09:29:38.825Z,100773.53
2022-12-26T09:32:06.170Z,101001.66
2022-12-26T09:34:33.125Z,100941.53
2022-12-26T09:37:01.313Z,101007.38
2022-12-26T09:39:28.012Z,100985.56
2022-12-26T09:42:03.859Z,100996.31
2022-12-26T09:44:42.309Z,100955.31
2022-12-26T09:47:22.078Z,101033.41
2022-12-26T09:49:55.504Z,101025.25
2022-12-26T09:52:32.531Z,100907.72
2022-12-26T09:55:05.703Z,100824.25
2022-12-26T09:57:38.131Z,100884.47
2022-12-26T10:00:07.446Z,100992.75
2022-12-26T10:02:34.375Z,100877.94
2022-12-26T10:05:01.682Z,100957.66
2022-12-26T10:07:36.321Z,101073.47
2022-12-26T10:10:10.895Z,100925.69
2022-12-26T10:12:50.814Z,101075.72
2022-12-26T10:15:43.446Z,100935.28
2022-12-26T10:18:28.207Z,101094.44
2022-12-26T10:21:12.177Z,101099.13
2022-12-26T10:23:44.724Z,101111.69
2022-12-26T10:26:16.878Z,101124.53
2022-12-26T10:28:47.929Z,101129.72
2022-12-26T10:57:24.841Z,101194.16
2022-12-26T10:59:56.897Z,101185.81
2022-12-26T11:05:40.351Z,101075.91
2022-12-26T11:08:49.714Z,101169.03
2022-12-26T11:11:25.100Z,101049.56
2022-12-26T11:14:06.009Z,101037.41
2022-12-26T11:16:46.198Z,101192.50
2022-12-26T11:19:47.062Z,101226.25
2022-12-26T11:22:41.714Z,101034.38
2022-12-26T11:25:24.297Z,101236.06
2022-12-26T11:27:59.990Z,101058.78
2022-12-26T11:30:50.631Z,101130.78
2022-12-26T11:33:48.134Z,101259.22
2022-12-26T11:39:05.251Z,101078.00
2022-12-26T11:41:41.201Z,101119.69
2022-12-26T11:44:46.090Z,101070.31
2022-12-26T11:47:27.099Z,101121.78
2022-12-26T11:50:17.420Z,101288.69
2022-12-26T11:53:28.762Z,101095.75
2022-12-26T11:56:07.663Z,101082.94
2022-12-26T11:58:53.854Z,101297.53
2022-12-26T12:04:24.855Z,101217.06
2022-12-26T12:11:04.178Z,101316.34
2022-12-26T12:14:07.497Z,101305.03
2022-12-26T12:17:07.766Z,101136.44
2022-12-26T12:20:14.791Z,101147.69
2022-12-26T12:23:32.770Z,101335.03
2022-12-26T12:26:31.507Z,101239.22
2022-12-26T13:45:56.846Z,101442.47
2022-12-26T13:49:06.464Z,101442.22
2022-12-26T13:52:28.564Z,101273.84
2022-12-26T13:55:33.586Z,101413.00
2022-12-26T13:58:36.427Z,101396.63
2022-12-26T14:01:20.510Z,101361.88
2022-12-26T14:04:08.965Z,101281.88
2022-12-26T14:07:38.267Z,101242.97
2022-12-26T14:10:25.437Z,101376.22
2022-12-26T14:13:42.601Z,101398.22
2022-12-26T14:16:35.002Z,101342.97
2022-12-26T14:19:30.123Z,101473.69
2022-12-26T14:22:25.423Z,101402.78
2022-12-26T14:25:20.259Z,101274.94
2022-12-26T14:28:02.562Z,101417.72
2022-12-26T14:31:04.144Z,101456.78
2022-12-26T14:33:50.745Z,101494.88
2022-12-26T14:37:00.160Z,101264.25
2022-12-26T14:39:41.108Z,101304.97
2022-12-26T14:42:35.663Z,101286.97
2022-12-26T14:45:15.447Z,101492.38
2022-12-26T14:47:46.183Z,101304.78
2022-12-26T14:50:52.677Z,101525.50
2022-12-26T14:53:41.236Z,101491.53
2022-12-26T14:56:34.763Z,101319.53
2022-12-26T14:59:42.461Z,101294.81
2022-12-26T15:02:40.276Z,101292.34
2022-12-26T15:05:43.834Z,101533.03
2022-12-26T15:08:35.138Z,101391.53
2022-12-26T15:11:42.842Z,101509.72
2022-12-26T15:14:56.999Z,101352.72
2022-12-26T15:17:39.690Z,101461.84
2022-12-26T15:20:53.372Z,101543.66
2022-12-26T15:23:54.681Z,101544.78
2022-12-26T15:27:18.473Z,101552.06
2022-12-26T15:30:04.664Z,101468.84
2022-12-26T15:32:43.553Z,101555.88
2022-12-26T15:35:31.577Z,101426.28
2022-12-26T15:38:25.114Z,101340.22
2022-12-26T15:41:10.215Z,101559.28
2022-12-26T15:44:03.227Z,101492.50
2022-12-26T15:46:36.619Z,101482.06
2022-12-26T15:49:30.420Z,101566.88
2022-12-26T15:52:10.602Z,101434.13
2022-12-26T15:55:15.698Z,101490.59
2022-12-26T15:58:05.014Z,101395.25
2022-12-26T16:00:49.631Z,101350.97
2022-12-26T16:03:36.742Z,101368.03
2022-12-26T16:06:33.232Z,101439.06
2022-12-26T16:09:20.327Z,101458.78
2022-12-26T16:12:00.755Z,101363.56
2022-12-26T16:14:47.851Z,101518.75
2022-12-26T16:17:32.830Z,101353.75
2022-12-26T16:20:18.967Z,101372.59
2022-12-26T16:23:00.560Z,101543.00
2022-12-26T16:25:27.880Z,101509.16
2022-12-26T16:27:57.797Z,101438.56
2022-12-26T16:30:40.318Z,101551.91
2022-12-26T16:33:28.407Z,101429.59
2022-12-26T16:36:18.699Z,101518.31
2022-12-26T16:38:52.717Z,101386.69
2022-12-26T16:41:22.236Z,101384.22
2022-12-26T16:43:55.953Z,101419.56
2022-12-26T16:46:33.746Z,101509.53
2022-12-26T16:49:09.678Z,101553.41
2022-12-26T16:52:03.106Z,101511.41
2022-12-26T16:54:37.448Z,101513.28
2022-12-26T16:57:16.950Z,101507.97
2022-12-26T16:59:56.659Z,101431.59
2022-12-26T17:02:34.660Z,101590.19
2022-12-26T17:05:06.535Z,101549.94
2022-12-26T17:07:38.812Z,101416.41
2022-12-26T17:10:21.120Z,101625.16
2022-12-26T17:12:50.753Z,101393.84
2022-12-26T17:15:24.627Z,101505.81
2022-12-26T17:17:53.027Z,101404.13
2022-12-26T17:20:47.385Z,101386.09
2022-12-26T17:23:36.998Z,101644.78
2022-12-26T17:26:30.052Z,101487.53
2022-12-26T17:29:06.185Z,101637.59
2022-12-26T17:31:40.365Z,101632.91
2022-12-26T17:34:23.450Z,101639.69
2022-12-26T17:37:18.616Z,101547.00
2022-12-26T17:39:42.255Z,101595.50
2022-12-26T17:42:17.510Z,101641.16
2022-12-26T17:44:48.539Z,101597.56
2022-12-26T17:47:28.125Z,101550.50
2022-12-26T17:50:10.461Z,101447.13
2022-12-26T17:55:22.705Z,101433.34
2022-12-26T17:57:49.989Z,101555.28
2022-12-26T18:00:19.995Z,101416.50
2022-12-26T18:02:54.494Z,101590.00
2022-12-26T18:05:27.177Z,101654.19
2022-12-26T18:07:56.500Z,101444.03
2022-12-26T18:10:31.276Z,101416.09
2022-12-26T18:13:01.664Z,101573.78
2022-12-26T18:15:31.582Z,101425.53
2022-12-26T18:17:58.679Z,101581.78
2022-12-26T18:20:33.179Z,101463.16
2022-12-26T18:23:19.521Z,101649.09
2022-12-26T18:25:54.319Z,101586.72
2022-12-26T18:28:31.426Z,101591.28
2022-12-26T18:31:00.490Z,101546.44
2022-12-26T18:33:28.131Z,101676.03
2022-12-26T18:36:07.404Z,101660.41
2022-12-26T18:38:36.006Z,101506.53
2022-12-26T18:41:05.742Z,101509.19
2022-12-26T18:43:35.379Z,101462.53
2022-12-26T18:46:06.599Z,101623.16
2022-12-26T18:48:33.423Z,101553.03
2022-12-26T18:51:18.270Z,101576.66
2022-12-26T18:53:45.743Z,101600.94
2022-12-26T18:56:14.501Z,101589.00
2022-12-26T18:58:46.264Z,101577.28
2022-12-26T19:01:18.628Z,101711.47
2022-12-26T19:03:54.104Z,101454.25
2022-12-26T19:06:33.348Z,101665.97
2022-12-26T19:09:07.442Z,101708.59
2022-12-26T19:11:37.564Z,101563.84
2022-12-26T19:14:15.305Z,101489.38
2022-12-26T19:16:42.646Z,101480.97
2022-12-26T19:19:09.563Z,101636.34
2022-12-26T19:21:47.765Z,101633.63
2022-12-26T19:24:17.095Z,101695.00
2022-12-26T19:26:54.538Z,101610.38
2022-12-26T19:29:21.441Z,101528.25
2022-12-26T19:31:51.229Z,101738.63
2022-12-26T19:34:23.891Z,101696.19
2022-12-26T19:36:57.471Z,101640.25
2022-12-26T19:39:31.811Z,101562.84
2022-12-26T19:42:03.988Z,101748.31
2022-12-26T19:44:35.276Z,101614.47
2022-12-26T19:47:11.381Z,101645.16
2022-12-26T19:49:40.024Z,101632.19
2022-12-26T19:52:08.337Z,101543.91
2022-12-26T19:54:37.922Z,101715.16
2022-12-26T19:57:05.551Z,101685.13
2022-12-26T19:59:36.062Z,101647.84
2022-12-26T20:02:08.016Z,101513.66
2022-12-26T20:04:37.922Z,101704.03
2022-12-26T20:07:10.350Z,101556.66
2022-12-26T20:09:40.511Z,101581.97
2022-12-26T20:12:11.097Z,101660.41
2022-12-26T20:14:45.878Z,101716.41
2022-12-26T20:17:16.271Z,101705.28
2022-12-26T20:19:43.029Z,101664.53
2022-12-26T20:22:10.338Z,101704.06
2022-12-26T20:24:44.651Z,101618.56
2022-12-26T20:27:18.506Z,101705.69
2022-12-26T20:29:45.457Z,101677.69
2022-12-26T20:32:13.841Z,101517.53
2022-12-26T20:37:29.445Z,101648.84
2022-12-26T20:40:07.653Z,101700.75
2022-12-26T20:42:37.247Z,101641.88
2022-12-26T20:45:08.499Z,101585.88
2022-12-26T20:47:53.062Z,101774.69
2022-12-26T20:50:30.501Z,101657.50
2022-12-26T20:53:08.698Z,101769.13
2022-12-26T20:55:39.374Z,101664.88
2022-12-26T20:58:06.214Z,101539.34
2022-12-26T21:00:44.513Z,101792.81
2022-12-26T21:03:27.618Z,101639.72
2022-12-26T21:06:07.888Z,101569.53
2022-12-26T21:08:50.409Z,101549.56
2022-12-26T21:11:34.688Z,101560.91
2022-12-26T21:14:17.399Z,101748.50
2022-12-26T21:16:46.500Z,101675.78
2022-12-26T21:19:18.756Z,101789.91
2022-12-26T21:21:54.237Z,101537.66
2022-12-26T21:24:33.546Z,101572.19
2022-12-26T21:27:13.473Z,101605.56
2022-12-26T21:29:50.980Z,101613.41
2022-12-26T21:32:17.974Z,101802.72
2022-12-26T21:34:51.509Z,101580.72
2022-12-26T21:37:19.102Z,101584.84
2022-12-26T21:39:53.786Z,101786.66
2022-12-26T21:45:13.070Z,101607.28
2022-12-26T21:47:44.985Z,101764.19
2022-12-26T21:50:19.144Z,101728.34
2022-12-26T21:52:50.479Z,101572.28
2022-12-26T21:55:20.199Z,101821.47
2022-12-26T21:57:54.601Z,101587.88
2022-12-26T22:00:31.604Z,101594.47
2022-12-26T22:03:06.940Z,101676.81
2022-12-26T22:05:42.913Z,101583.75
2022-12-26T22:08:21.159Z,101825.56
2022-12-26T22:10:52.370Z,101838.53
2022-12-26T22:13:27.631Z,101833.78
2022-12-26T22:15:59.947Z,101610.47
2022-12-26T22:18:46.414Z,101775.25
2022-12-26T22:21:15.685Z,101839.16
2022-12-26T22:23:43.474Z,101769.47
2022-12-26T22:26:15.927Z,101644.28
2022-12-26T22:28:50.205Z,101606.16
2022-12-26T22:31:24.909Z,101829.47
2022-12-26T22:34:02.692Z,101683.19
2022-12-26T22:36:47.493Z,101714.66
2022-12-26T22:39:37.978Z,101580.81
2022-12-26T22:42:22.607Z,101821.84
2022-12-26T22:45:03.766Z,101856.06
2022-12-26T22:47:35.800Z,101714.28
2022-12-26T22:50:13.428Z,101789.31
2022-12-26T22:52:42.989Z,101844.53
2022-12-26T22:55:19.722Z,101837.53
2022-12-26T22:57:52.385Z,101785.41
2022-12-26T23:00:21.955Z,101644.28
2022-12-26T23:02:48.789Z,101619.22
2022-12-26T23:05:18.768Z,101802.50
2022-12-26T23:07:51.660Z,101782.50
2022-12-26T23:10:21.928Z,101779.22
2022-12-26T23:12:52.926Z,101631.94
2022-12-26T23:15:27.260Z,101708.56
2022-12-26T23:18:09.974Z,101674.56
2022-12-26T23:20:38.951Z,101699.50
2022-12-26T23:23:08.158Z,101615.25
2022-12-26T23:25:37.132Z,101616.50
2022-12-26T23:28:04.298Z,101728.31
2022-12-26T23:30:32.521Z,101612.16
2022-12-26T23:33:04.884Z,101868.44
2022-12-26T23:35:33.641Z,101758.81
2022-12-26T23:38:00.463Z,101686.84
2022-12-26T23:40:30.437Z,101848.63
2022-12-26T23:43:01.747Z,101788.03
2022-12-26T23:45:28.560Z,101866.16
2022-12-26T23:48:04.924Z,101775.66
2022-12-26T23:50:37.397Z,101862.84
2022-12-26T23:53:06.472Z,101797.28
2022-12-26T23:55:34.563Z,101756.91
2022-12-26T23:58:03.188Z,101727.03
